createdAt,value
2018-10-19T00:00:38.742Z,43.60
2018-10-19T00:03:06.289Z,43.70
2018-10-19T00:05:33.835Z,43.80
2018-10-19T00:08:01.396Z,43.80
2018-10-19T00:10:29.066Z,43.80
2018-10-19T00:12:56.714Z,43.80
2018-10-19T00:15:24.199Z,44.20
2018-10-19T00:17:51.796Z,43.80
2018-10-19T00:20:19.398Z,44.00
2018-10-19T00:22:46.972Z,43.90
2018-10-19T00:25:14.586Z,44.00
2018-10-19T00:27:42.250Z,44.00
2018-10-19T00:30:10.594Z,42.90
2018-10-19T00:32:38.144Z,43.90
2018-10-19T00:35:06.045Z,44.10
2018-10-19T00:37:33.563Z,44.10
2018-10-19T00:40:01.147Z,44.10
2018-10-19T00:42:28.687Z,44.10
2018-10-19T00:44:56.365Z,44.20
2018-10-19T00:47:23.883Z,44.20
2018-10-19T00:49:51.423Z,44.20
2018-10-19T00:52:19.005Z,43.60
2018-10-19T00:54:46.575Z,44.20
2018-10-19T00:57:14.192Z,44.30
2018-10-19T00:59:41.723Z,42.70
2018-10-19T01:02:09.287Z,44.30
2018-10-19T01:04:36.829Z,44.30
2018-10-19T01:07:04.465Z,44.40
2018-10-19T01:09:32.085Z,44.50
2018-10-19T01:11:59.695Z,44.50
2018-10-19T01:14:27.645Z,44.50
2018-10-19T01:16:55.324Z,44.50
2018-10-19T01:19:22.940Z,43.00
2018-10-19T01:21:50.512Z,44.60
2018-10-19T01:24:18.750Z,44.60
2018-10-19T01:26:46.246Z,44.50
2018-10-19T01:29:13.879Z,44.60
2018-10-19T01:31:41.434Z,44.60
2018-10-19T01:34:09.062Z,44.70
2018-10-19T01:36:42.493Z,44.60
2018-10-19T01:39:11.013Z,44.60
2018-10-19T01:41:38.742Z,44.70
2018-10-19T01:44:07.066Z,44.70
2018-10-19T01:46:34.647Z,44.80
2018-10-19T01:49:02.187Z,44.80
2018-10-19T01:51:29.830Z,45.00
2018-10-19T01:53:57.357Z,45.00
2018-10-19T01:56:24.902Z,45.00
2018-10-19T01:58:52.437Z,45.00
2018-10-19T02:01:20.604Z,45.00
2018-10-19T02:03:48.267Z,45.00
2018-10-19T02:06:15.781Z,45.10
2018-10-19T02:08:43.281Z,45.20
2018-10-19T02:11:10.887Z,45.10
2018-10-19T02:13:38.284Z,45.20
2018-10-19T02:16:05.807Z,45.20
2018-10-19T02:18:33.285Z,45.20
2018-10-19T02:21:00.783Z,45.30
2018-10-19T02:23:28.369Z,45.20
2018-10-19T02:25:55.944Z,45.30
2018-10-19T02:28:23.547Z,45.40
2018-10-19T02:30:51.053Z,45.30
2018-10-19T02:33:18.678Z,45.10
2018-10-19T02:35:46.106Z,44.40
2018-10-19T02:38:13.603Z,45.40
2018-10-19T02:40:41.163Z,45.50
2018-10-19T02:43:08.728Z,45.50
2018-10-19T02:45:40.266Z,45.50
2018-10-19T02:48:07.918Z,45.60
2018-10-19T02:50:35.429Z,45.60
2018-10-19T02:53:02.962Z,45.60
2018-10-19T02:55:30.397Z,45.70
2018-10-19T02:57:57.870Z,45.70
2018-10-19T03:00:25.395Z,45.70
2018-10-19T03:02:52.873Z,44.80
2018-10-19T03:05:20.348Z,45.80
2018-10-19T03:07:47.876Z,45.90
2018-10-19T03:10:15.321Z,45.90
2018-10-19T03:12:42.825Z,45.90
2018-10-19T03:15:10.377Z,45.80
2018-10-19T03:17:37.957Z,45.70
2018-10-19T03:20:06.255Z,45.90
2018-10-19T03:22:33.828Z,45.90
2018-10-19T03:25:01.410Z,46.00
2018-10-19T03:27:28.936Z,45.90
2018-10-19T03:29:56.426Z,45.90
2018-10-19T03:32:23.886Z,45.90
2018-10-19T03:34:51.441Z,45.90
2018-10-19T03:37:18.948Z,45.90
2018-10-19T03:39:46.458Z,45.90
2018-10-19T03:42:14.045Z,45.90
2018-10-19T03:44:41.599Z,45.90
2018-10-19T03:47:09.202Z,45.00
2018-10-19T03:49:36.881Z,46.00
2018-10-19T03:52:04.809Z,45.60
2018-10-19T03:54:32.402Z,46.10
2018-10-19T03:57:00.017Z,46.10
2018-10-19T03:59:27.522Z,45.40
2018-10-19T04:01:55.045Z,46.20
2018-10-19T04:04:22.593Z,46.20
2018-10-19T04:06:50.135Z,44.40
2018-10-19T04:09:17.768Z,46.20
2018-10-19T04:11:45.195Z,46.20
2018-10-19T04:14:12.782Z,45.90
2018-10-19T04:16:40.275Z,46.20
2018-10-19T04:19:08.521Z,46.20
2018-10-19T04:21:36.047Z,46.20
2018-10-19T04:24:04.660Z,46.20
2018-10-19T04:26:32.275Z,47.10
2018-10-19T04:28:59.864Z,46.30
2018-10-19T04:31:27.434Z,46.30
2018-10-19T04:33:54.929Z,46.10
2018-10-19T04:36:22.459Z,46.30
2018-10-19T04:38:49.947Z,46.30
2018-10-19T04:41:17.649Z,46.40
2018-10-19T04:43:45.059Z,45.70
2018-10-19T04:46:12.589Z,46.30
2018-10-19T04:48:40.181Z,46.30
2018-10-19T04:51:07.807Z,46.10
2018-10-19T04:53:35.378Z,46.40
2018-10-19T04:56:02.901Z,46.50
2018-10-19T04:58:30.450Z,46.50
2018-10-19T05:00:58.052Z,46.50
2018-10-19T05:03:25.621Z,47.80
2018-10-19T05:05:53.345Z,46.50
2018-10-19T05:08:21.059Z,46.50
2018-10-19T05:10:48.531Z,46.50
2018-10-19T05:13:16.100Z,45.60
2018-10-19T05:15:43.740Z,46.40
2018-10-19T05:18:11.384Z,46.60
2018-10-19T05:20:38.975Z,46.80
2018-10-19T05:23:06.622Z,46.50
2018-10-19T05:25:34.224Z,46.60
2018-10-19T05:28:01.808Z,46.60
2018-10-19T05:30:29.424Z,46.60
2018-10-19T05:32:58.163Z,46.70
2018-10-19T05:35:31.781Z,46.70
2018-10-19T05:38:10.724Z,46.50
2018-10-19T05:40:39.096Z,46.80
2018-10-19T05:43:07.462Z,46.70
2018-10-19T05:45:35.154Z,48.80
2018-10-19T05:48:02.758Z,46.80
2018-10-19T05:50:30.376Z,46.80
2018-10-19T05:52:57.922Z,46.80
2018-10-19T05:55:25.460Z,46.80
2018-10-19T05:57:53.054Z,46.80
2018-10-19T06:00:20.575Z,47.00
2018-10-19T06:02:48.106Z,45.90
2018-10-19T06:05:15.817Z,46.60
2018-10-19T06:07:43.326Z,47.20
2018-10-19T06:10:10.870Z,47.20
2018-10-19T06:12:38.423Z,47.20
2018-10-19T06:15:06.462Z,45.60
2018-10-19T06:17:34.113Z,46.60
2018-10-19T06:20:02.825Z,47.30
2018-10-19T06:22:30.426Z,47.50
2018-10-19T06:24:58.087Z,47.30
2018-10-19T06:27:25.791Z,47.40
2018-10-19T06:29:53.463Z,47.40
2018-10-19T06:32:21.075Z,47.50
2018-10-19T06:34:48.637Z,47.50
2018-10-19T06:37:16.242Z,47.60
2018-10-19T06:39:43.996Z,47.50
2018-10-19T06:42:11.561Z,47.70
2018-10-19T06:44:39.156Z,47.80
2018-10-19T06:47:06.934Z,48.00
2018-10-19T06:49:34.435Z,48.00
2018-10-19T06:52:02.014Z,48.00
2018-10-19T06:54:29.711Z,48.00
2018-10-19T06:56:57.270Z,48.00
2018-10-19T06:59:24.904Z,48.10
2018-10-19T07:01:52.779Z,48.10
2018-10-19T07:04:20.503Z,46.50
2018-10-19T07:06:48.179Z,48.20
2018-10-19T07:09:15.875Z,48.20
2018-10-19T07:11:43.723Z,48.10
2018-10-19T07:14:11.600Z,47.50
2018-10-19T07:16:39.234Z,48.10
2018-10-19T07:19:06.980Z,48.40
2018-10-19T07:21:34.581Z,48.40
2018-10-19T07:24:02.252Z,48.50
2018-10-19T07:26:29.849Z,48.40
2018-10-19T07:28:57.448Z,48.40
2018-10-19T07:31:24.985Z,48.80
2018-10-19T07:33:53.254Z,48.40
2018-10-19T07:36:20.888Z,48.40
2018-10-19T07:38:48.485Z,48.20
2018-10-19T07:41:16.018Z,48.40
2018-10-19T07:43:43.604Z,48.60
2018-10-19T07:46:11.201Z,48.20
2018-10-19T07:48:38.843Z,48.70
2018-10-19T07:51:06.426Z,48.70
2018-10-19T07:53:33.995Z,48.70
2018-10-19T07:56:01.675Z,48.60
2018-10-19T07:58:29.174Z,47.50
2018-10-19T08:00:56.796Z,48.70
2018-10-19T08:03:24.579Z,48.60
2018-10-19T08:05:52.398Z,48.70
2018-10-19T08:08:19.953Z,48.70
2018-10-19T08:10:47.566Z,48.90
2018-10-19T08:13:15.132Z,49.20
2018-10-19T08:15:42.682Z,49.40
2018-10-19T08:18:10.318Z,49.10
2018-10-19T08:20:37.899Z,49.50
2018-10-19T08:23:05.639Z,49.70
2018-10-19T08:25:33.184Z,49.90
2018-10-19T08:28:00.847Z,49.80
2018-10-19T08:30:28.415Z,49.70
2018-10-19T08:32:55.997Z,49.50
2018-10-19T08:35:23.681Z,49.30
2018-10-19T08:37:51.254Z,48.90
2018-10-19T08:40:18.880Z,48.60
2018-10-19T08:42:46.601Z,48.00
2018-10-19T08:45:14.203Z,47.60
2018-10-19T08:47:41.815Z,47.10
2018-10-19T08:50:09.333Z,46.50
2018-10-19T08:52:36.984Z,46.20
2018-10-19T08:55:04.780Z,45.70
2018-10-19T08:57:32.377Z,45.20
2018-10-19T08:59:59.932Z,45.10
2018-10-19T09:02:27.479Z,44.80
2018-10-19T09:04:55.088Z,44.30
2018-10-19T09:07:22.634Z,43.90
2018-10-19T09:09:50.247Z,43.00
2018-10-19T09:12:17.922Z,43.00
2018-10-19T09:14:50.097Z,41.80
2018-10-19T09:17:17.815Z,42.30
2018-10-19T09:19:45.785Z,42.20
2018-10-19T09:22:13.504Z,40.00
2018-10-19T09:24:41.141Z,41.40
2018-10-19T09:27:08.805Z,40.90
2018-10-19T09:29:36.487Z,40.50
2018-10-19T09:32:04.256Z,40.10
2018-10-19T09:34:31.822Z,38.00
2018-10-19T09:36:59.653Z,38.40
2018-10-19T09:39:27.185Z,37.80
2018-10-19T09:41:54.825Z,37.30
2018-10-19T09:44:22.473Z,36.70
2018-10-19T09:46:50.067Z,36.20
2018-10-19T09:49:17.690Z,34.20
2018-10-19T09:51:45.225Z,35.70
2018-10-19T09:54:12.849Z,34.70
2018-10-19T09:56:40.685Z,35.80
2018-10-19T09:59:08.376Z,35.80
2018-10-19T10:01:36.512Z,35.90
2018-10-19T10:04:04.335Z,36.30
2018-10-19T10:06:31.895Z,36.50
2018-10-19T10:08:59.411Z,36.60
2018-10-19T10:11:26.947Z,36.60
2018-10-19T10:13:54.487Z,38.10
2018-10-19T10:16:22.091Z,37.20
2018-10-19T10:18:49.687Z,38.80
2018-10-19T10:21:17.289Z,38.90
2018-10-19T10:23:44.856Z,37.60
2018-10-19T10:26:13.094Z,39.00
2018-10-19T10:28:40.653Z,38.80
2018-10-19T10:31:08.249Z,38.30
2018-10-19T10:33:36.111Z,38.10
2018-10-19T10:36:03.690Z,37.80
2018-10-19T10:38:31.414Z,37.80
2018-10-19T10:40:58.969Z,37.70
2018-10-19T10:43:26.488Z,37.40
2018-10-19T10:45:54.014Z,36.00
2018-10-19T10:48:21.571Z,37.00
2018-10-19T10:50:49.121Z,36.80
2018-10-19T10:53:16.982Z,36.40
2018-10-19T10:55:44.547Z,36.20
2018-10-19T10:58:12.191Z,35.70
2018-10-19T11:00:39.691Z,35.30
2018-10-19T11:03:07.250Z,34.70
2018-10-19T11:05:34.796Z,34.70
2018-10-19T11:08:02.278Z,33.90
2018-10-19T11:10:29.743Z,33.80
2018-10-19T11:12:57.204Z,33.50
2018-10-19T11:15:24.752Z,33.10
2018-10-19T11:17:52.285Z,33.10
2018-10-19T11:20:19.838Z,33.10
2018-10-19T11:22:47.388Z,32.70
2018-10-19T11:25:15.023Z,32.60
2018-10-19T11:27:42.549Z,32.20
2018-10-19T11:30:10.078Z,31.90
2018-10-19T11:32:37.637Z,31.70
2018-10-19T11:35:05.576Z,31.40
2018-10-19T11:37:33.266Z,31.30
2018-10-19T11:40:38.035Z,31.20
2018-10-19T11:43:06.561Z,30.80
2018-10-19T11:45:34.825Z,30.70
2018-10-19T11:48:02.405Z,30.50
2018-10-19T11:50:29.911Z,30.10
2018-10-19T11:52:57.514Z,30.30
2018-10-19T11:55:25.090Z,30.10
2018-10-19T11:57:52.699Z,30.00
2018-10-19T12:00:20.200Z,29.90
2018-10-19T12:02:47.711Z,29.70
2018-10-19T12:05:15.299Z,29.30
2018-10-19T12:07:42.805Z,28.80
2018-10-19T12:10:11.479Z,28.40
2018-10-19T12:12:39.458Z,28.30
2018-10-19T12:15:08.302Z,28.20
2018-10-19T12:17:35.876Z,28.20
2018-10-19T12:20:03.697Z,28.00
2018-10-19T12:22:31.217Z,28.10
2018-10-19T12:24:58.817Z,28.20
2018-10-19T12:27:26.411Z,28.40
2018-10-19T12:29:53.986Z,28.60
2018-10-19T12:32:21.541Z,28.90
2018-10-19T12:34:49.112Z,29.20
2018-10-19T12:37:16.766Z,29.40
2018-10-19T12:39:44.271Z,29.70
2018-10-19T12:42:11.775Z,30.00
2018-10-19T12:44:39.328Z,31.10
2018-10-19T12:47:45.338Z,30.70
2018-10-19T12:50:12.903Z,31.20
2018-10-19T12:52:40.430Z,30.00
2018-10-19T12:55:08.542Z,31.90
2018-10-19T12:57:36.209Z,32.30
2018-10-19T13:00:04.814Z,32.40
2018-10-19T13:02:32.431Z,32.60
2018-10-19T13:04:59.959Z,31.90
2018-10-19T13:07:31.703Z,32.70
2018-10-19T13:09:59.222Z,32.50
2018-10-19T13:12:26.753Z,32.00
2018-10-19T13:14:54.342Z,32.00
2018-10-19T13:17:21.855Z,32.00
2018-10-19T13:19:49.437Z,31.80
2018-10-19T13:22:16.971Z,31.50
2018-10-19T13:24:44.496Z,32.00
2018-10-19T13:27:12.141Z,30.30
2018-10-19T13:29:39.696Z,30.70
2018-10-19T13:32:07.233Z,30.60
2018-10-19T13:34:34.843Z,30.40
2018-10-19T13:37:08.989Z,30.40
2018-10-19T13:39:36.546Z,30.20
2018-10-19T13:42:04.428Z,30.00
2018-10-19T13:44:32.022Z,30.00
2018-10-19T13:46:59.642Z,30.60
2018-10-19T13:49:27.118Z,28.80
2018-10-19T13:51:54.778Z,29.80
2018-10-19T13:54:22.298Z,29.70
2018-10-19T13:56:49.826Z,29.90
2018-10-19T13:59:17.403Z,29.50
2018-10-19T14:01:44.940Z,29.40
2018-10-19T14:04:12.478Z,29.20
2018-10-19T14:06:39.982Z,28.30
2018-10-19T14:09:08.985Z,29.10
2018-10-19T14:11:36.566Z,28.80
2018-10-19T14:14:04.540Z,28.50
2018-10-19T14:16:32.034Z,28.50
2018-10-19T14:18:59.610Z,28.30
2018-10-19T14:21:27.084Z,28.40
2018-10-19T14:23:54.613Z,28.30
2018-10-19T14:26:22.174Z,28.30
2018-10-19T14:28:49.700Z,28.40
2018-10-19T14:31:17.219Z,28.50
2018-10-19T14:33:44.953Z,28.70
2018-10-19T14:36:12.356Z,28.70
2018-10-19T14:38:39.895Z,28.90
2018-10-19T14:41:07.598Z,29.00
2018-10-19T14:43:35.085Z,29.20
2018-10-19T14:46:02.587Z,27.80
2018-10-19T14:48:30.103Z,29.70
2018-10-19T14:50:57.606Z,29.80
2018-10-19T14:53:25.122Z,29.90
2018-10-19T14:55:52.643Z,30.10
2018-10-19T14:58:20.216Z,30.30
2018-10-19T15:00:47.846Z,30.70
2018-10-19T15:03:15.468Z,31.00
2018-10-19T15:05:42.881Z,31.10
2018-10-19T15:08:10.445Z,31.40
2018-10-19T15:10:38.359Z,31.50
2018-10-19T15:13:05.647Z,31.70
2018-10-19T15:15:33.206Z,31.90
2018-10-19T15:18:00.784Z,32.10
2018-10-19T15:20:28.370Z,32.20
2018-10-19T15:22:55.975Z,31.70
2018-10-19T15:25:23.609Z,32.60
2018-10-19T15:27:51.284Z,31.40
2018-10-19T15:30:19.510Z,32.90
2018-10-19T15:32:47.432Z,32.90
2018-10-19T15:35:14.990Z,33.10
2018-10-19T15:37:42.809Z,33.30
2018-10-19T15:40:10.857Z,33.80
2018-10-19T15:42:38.736Z,33.40
2018-10-19T15:45:08.738Z,33.70
2018-10-19T15:47:36.431Z,33.80
2018-10-19T15:50:04.432Z,33.80
2018-10-19T15:52:32.051Z,33.20
2018-10-19T15:54:59.621Z,34.20
2018-10-19T15:57:27.348Z,34.10
2018-10-19T15:59:54.902Z,34.50
2018-10-19T16:02:22.458Z,34.60
2018-10-19T16:04:50.613Z,34.70
2018-10-19T16:07:18.790Z,34.80
2018-10-19T16:09:46.800Z,34.80
2018-10-19T16:12:14.595Z,33.40
2018-10-19T16:14:42.354Z,35.20
2018-10-19T16:17:10.288Z,35.00
2018-10-19T16:19:37.880Z,35.30
2018-10-19T16:22:05.679Z,35.50
2018-10-19T16:24:33.440Z,35.60
2018-10-19T16:27:01.215Z,35.70
2018-10-19T16:29:28.914Z,36.00
2018-10-19T16:31:56.514Z,35.90
2018-10-19T16:34:24.168Z,36.00
2018-10-19T16:36:51.794Z,36.20
2018-10-19T16:39:19.550Z,36.30
2018-10-19T16:41:47.206Z,36.30
2018-10-19T16:44:14.863Z,36.30
2018-10-19T16:46:42.539Z,35.40
2018-10-19T16:49:10.256Z,36.60
2018-10-19T16:51:37.858Z,36.30
2018-10-19T16:54:05.462Z,36.90
2018-10-19T16:56:33.037Z,37.20
2018-10-19T16:59:00.616Z,37.20
2018-10-19T17:01:28.200Z,38.00
2018-10-19T17:03:55.829Z,37.50
2018-10-19T17:06:23.532Z,37.60
2018-10-19T17:08:51.123Z,37.60
2018-10-19T17:11:18.745Z,37.80
2018-10-19T17:13:46.318Z,37.90
2018-10-19T17:16:13.920Z,37.90
2018-10-19T17:18:41.512Z,38.00
2018-10-19T17:21:09.208Z,37.00
2018-10-19T17:23:36.692Z,38.30
2018-10-19T17:26:05.123Z,38.40
2018-10-19T17:28:32.729Z,36.90
2018-10-19T17:31:00.470Z,39.40
2018-10-19T17:33:28.095Z,38.70
2018-10-19T17:35:55.749Z,38.50
2018-10-19T17:38:23.370Z,38.50
2018-10-19T17:40:51.035Z,38.80
2018-10-19T17:43:18.744Z,38.90
2018-10-19T17:45:46.279Z,37.40
2018-10-19T17:48:14.031Z,38.50
2018-10-19T17:50:41.594Z,39.30
2018-10-19T17:53:09.246Z,37.90
2018-10-19T17:55:36.766Z,38.30
2018-10-19T17:58:04.370Z,38.70
2018-10-19T18:03:33.269Z,39.30
2018-10-19T18:06:06.493Z,39.60
2018-10-19T18:08:34.853Z,39.20
2018-10-19T18:11:04.643Z,40.70
2018-10-19T18:13:34.398Z,39.80
2018-10-19T18:16:02.377Z,39.90
2018-10-19T18:18:31.061Z,39.90
2018-10-19T18:21:00.789Z,40.00
2018-10-19T18:23:28.982Z,40.10
2018-10-19T18:25:56.631Z,40.20
2018-10-19T18:28:24.305Z,40.20
2018-10-19T18:30:51.936Z,40.30
2018-10-19T18:33:19.649Z,40.20
2018-10-19T18:35:47.371Z,40.30
2018-10-19T18:38:15.066Z,40.40
2018-10-19T18:40:42.670Z,40.40
2018-10-19T18:43:10.190Z,40.40
2018-10-19T18:45:37.920Z,40.60
2018-10-19T18:48:05.696Z,40.70
2018-10-19T18:50:33.568Z,40.60
2018-10-19T18:53:01.476Z,41.00
2018-10-19T18:55:29.149Z,40.60
2018-10-19T18:57:56.983Z,40.90
2018-10-19T19:00:24.740Z,39.20
2018-10-19T19:02:52.613Z,40.40
2018-10-19T19:05:20.563Z,40.80
2018-10-19T19:07:48.318Z,39.60
2018-10-19T19:10:16.247Z,41.20
2018-10-19T19:12:44.096Z,40.60
2018-10-19T19:15:12.128Z,41.10
2018-10-19T19:17:39.810Z,41.40
2018-10-19T19:20:13.640Z,41.00
2018-10-19T19:22:41.991Z,41.60
2018-10-19T19:25:15.120Z,41.50
2018-10-19T19:27:42.748Z,41.40
2018-10-19T19:30:10.340Z,41.70
2018-10-19T19:32:42.489Z,41.80
2018-10-19T19:35:10.141Z,41.00
2018-10-19T19:37:37.674Z,41.40
2018-10-19T19:40:05.504Z,42.00
2018-10-19T19:42:38.632Z,41.60
2018-10-19T19:45:06.311Z,41.90
2018-10-19T19:47:39.496Z,42.10
2018-10-19T19:50:07.098Z,42.20
2018-10-19T19:52:34.747Z,42.20
2018-10-19T19:55:02.304Z,41.90
2018-10-19T19:57:29.890Z,42.40
2018-10-19T19:59:57.509Z,42.30
2018-10-19T20:02:25.108Z,42.40
2018-10-19T20:04:52.784Z,42.50
2018-10-19T20:07:20.352Z,42.60
2018-10-19T20:09:47.900Z,42.60
2018-10-19T20:12:15.523Z,41.80
2018-10-19T20:14:43.101Z,43.20
2018-10-19T20:17:10.830Z,43.10
2018-10-19T20:19:38.444Z,41.90
2018-10-19T20:22:06.016Z,42.80
2018-10-19T20:24:33.700Z,42.80
2018-10-19T20:27:01.214Z,42.90
2018-10-19T20:29:28.768Z,42.90
2018-10-19T20:31:56.347Z,43.90
2018-10-19T20:34:23.875Z,43.10
2018-10-19T20:36:51.397Z,43.10
2018-10-19T20:39:18.941Z,43.10
2018-10-19T20:41:46.520Z,42.80
2018-10-19T20:44:14.208Z,43.30
2018-10-19T20:46:41.832Z,43.30
2018-10-19T20:49:09.369Z,43.30
2018-10-19T20:51:37.066Z,42.30
2018-10-19T20:54:05.626Z,42.30
2018-10-19T20:56:33.149Z,43.50
2018-10-19T20:59:00.805Z,43.50
2018-10-19T21:01:28.296Z,43.50
2018-10-19T21:03:55.848Z,43.50
2018-10-19T21:06:23.431Z,43.60
2018-10-19T21:08:51.004Z,43.70
2018-10-19T21:11:18.477Z,43.20
2018-10-19T21:13:46.005Z,43.80
2018-10-19T21:16:13.500Z,43.90
2018-10-19T21:18:41.048Z,43.80
2018-10-19T21:21:08.583Z,43.90
2018-10-19T21:23:36.077Z,43.90
2018-10-19T21:26:03.709Z,43.80
2018-10-19T21:28:31.196Z,44.00
2018-10-19T21:30:58.741Z,45.60
2018-10-19T21:33:26.336Z,44.00
2018-10-19T21:35:53.862Z,44.00
2018-10-19T21:38:21.375Z,44.70
2018-10-19T21:40:48.875Z,44.00
2018-10-19T21:43:16.357Z,44.10
2018-10-19T21:45:43.836Z,44.00
2018-10-19T21:48:11.369Z,44.20
2018-10-19T21:50:38.871Z,44.00
2018-10-19T21:53:06.466Z,44.40
2018-10-19T21:55:33.991Z,44.50
2018-10-19T21:58:01.620Z,44.50
2018-10-19T22:00:29.220Z,44.50
2018-10-19T22:02:56.727Z,43.60
2018-10-19T22:05:24.277Z,44.50
2018-10-19T22:07:51.968Z,44.60
2018-10-19T22:10:19.519Z,44.20
2018-10-19T22:12:47.056Z,44.60
2018-10-19T22:15:14.636Z,44.50
2018-10-19T22:17:42.214Z,44.70
2018-10-19T22:20:11.272Z,44.50
2018-10-19T22:22:38.852Z,44.50
2018-10-19T22:25:06.446Z,44.60
2018-10-19T22:27:33.929Z,44.60
2018-10-19T22:30:01.510Z,44.70
2018-10-19T22:32:29.093Z,44.70
2018-10-19T22:34:56.666Z,44.70
2018-10-19T22:37:24.157Z,44.70
2018-10-19T22:39:51.668Z,44.70
2018-10-19T22:42:19.176Z,44.80
2018-10-19T22:44:46.826Z,44.40
2018-10-19T22:47:14.406Z,44.90
2018-10-19T22:49:41.887Z,44.90
2018-10-19T22:52:09.448Z,44.30
2018-10-19T22:54:36.982Z,44.90
2018-10-19T22:57:04.584Z,45.00
2018-10-19T22:59:32.069Z,45.10
2018-10-19T23:01:59.668Z,45.10
2018-10-19T23:04:27.180Z,45.10
2018-10-19T23:06:54.730Z,45.20
2018-10-19T23:09:22.238Z,45.20
2018-10-19T23:11:49.801Z,45.30
2018-10-19T23:14:17.325Z,44.40
2018-10-19T23:16:44.863Z,45.40
2018-10-19T23:19:12.497Z,45.40
2018-10-19T23:21:40.035Z,45.50
2018-10-19T23:24:08.052Z,45.50
2018-10-19T23:26:35.657Z,45.60
2018-10-19T23:29:03.817Z,45.70
2018-10-19T23:31:31.419Z,45.70
2018-10-19T23:33:58.801Z,45.70
2018-10-19T23:36:26.307Z,45.70
2018-10-19T23:38:53.805Z,45.80
2018-10-19T23:41:21.346Z,45.90
2018-10-19T23:43:48.892Z,45.90
2018-10-19T23:46:16.426Z,45.90
2018-10-19T23:48:44.005Z,45.80
2018-10-19T23:51:11.571Z,46.20
2018-10-19T23:53:39.154Z,45.80
2018-10-19T23:56:06.640Z,45.80
2018-10-19T23:58:34.193Z,45.80
